Time;durP1;ratioP1;P1;durP2;ratioP2;P2;SDS_P1;SDS_P2;PMS_P1;PMS_P2;Temp;Humidity;BMP_temperature;BMP_pressure;BME280_temperature;BME280_humidity;BME280_pressure;Samples;Min_cycle;Max_cycle;Signal;HPM_P1;HPM_P2
2023/10/25 00:00:07;;;;;;;17.20;10.85;;;13.50;99.90;;;;;;5137241;27;20039;-71
2023/10/25 00:02:32;;;;;;;15.40;10.82;;;13.50;99.90;;;;;;5136517;27;20024;-70
2023/10/25 00:04:58;;;;;;;14.55;11.07;;;13.50;99.90;;;;;;5137124;27;20517;-70
2023/10/25 00:07:24;;;;;;;15.52;10.80;;;13.40;99.90;;;;;;5136850;27;20070;-69
2023/10/25 00:09:49;;;;;;;17.92;11.45;;;13.40;99.90;;;;;;5136957;27;20027;-70
2023/10/25 00:12:15;;;;;;;14.80;10.75;;;13.40;99.90;;;;;;5136751;27;20321;-71
2023/10/25 00:14:41;;;;;;;12.77;10.23;;;13.50;99.90;;;;;;5137187;27;20102;-70
2023/10/25 00:17:07;;;;;;;14.93;11.40;;;13.40;99.90;;;;;;5137071;27;20030;-70
2023/10/25 00:19:33;;;;;;;12.90;10.90;;;13.50;99.90;;;;;;5136232;27;20027;-70
2023/10/25 00:21:59;;;;;;;15.57;11.30;;;13.40;99.90;;;;;;5136780;27;20023;-70
2023/10/25 00:24:25;;;;;;;15.02;11.20;;;13.50;99.90;;;;;;5136676;27;20091;-70
2023/10/25 00:26:50;;;;;;;13.98;11.35;;;13.40;99.90;;;;;;5137041;27;20388;-70
2023/10/25 00:29:16;;;;;;;15.82;11.20;;;13.40;99.90;;;;;;5136497;27;20557;-69
2023/10/25 00:31:42;;;;;;;16.00;11.52;;;13.40;99.90;;;;;;5136573;27;20030;-70
2023/10/25 00:34:08;;;;;;;14.27;11.00;;;13.50;99.90;;;;;;5136724;27;20111;-70
2023/10/25 00:36:34;;;;;;;15.07;11.60;;;13.40;99.90;;;;;;5117956;27;20073;-69
2023/10/25 00:38:59;;;;;;;15.93;12.23;;;13.50;99.90;;;;;;5137061;27;20108;-70
2023/10/25 00:41:25;;;;;;;15.80;12.95;;;13.40;99.90;;;;;;5136312;27;20027;-70
2023/10/25 00:43:51;;;;;;;18.30;12.32;;;13.50;99.90;;;;;;5136645;27;20031;-70
2023/10/25 00:46:22;;;;;;;18.27;12.85;;;13.50;99.90;;;;;;5135809;27;20486;-70
2023/10/25 00:48:48;;;;;;;20.00;12.63;;;13.50;99.90;;;;;;5136420;27;20023;-70
2023/10/25 00:51:16;;;;;;;18.42;13.50;;;13.50;99.90;;;;;;5136067;27;20031;-71
2023/10/25 00:53:46;;;;;;;16.73;12.40;;;13.50;99.90;;;;;;5136720;27;20075;-69
2023/10/25 00:56:12;;;;;;;17.40;13.23;;;13.50;99.90;;;;;;5134680;27;20031;-71
2023/10/25 00:58:41;;;;;;;20.00;13.18;;;13.50;99.90;;;;;;5136056;27;20455;-70
2023/10/25 01:01:06;;;;;;;19.15;13.73;;;13.50;99.90;;;;;;5136294;27;20409;-70
2023/10/25 01:03:32;;;;;;;17.30;13.75;;;13.50;99.90;;;;;;5135496;27;20019;-70
2023/10/25 01:05:59;;;;;;;15.77;12.73;;;13.50;99.90;;;;;;5136290;27;20019;-70
2023/10/25 01:08:25;;;;;;;20.20;12.30;;;13.50;99.90;;;;;;5136124;27;20038;-70
2023/10/25 01:10:53;;;;;;;16.10;11.70;;;13.50;99.90;;;;;;5136083;27;20027;-69
2023/10/25 01:13:19;;;;;;;20.40;13.15;;;13.50;99.90;;;;;;5135288;27;20023;-69
2023/10/25 01:15:46;;;;;;;15.90;11.95;;;13.50;99.90;;;;;;5135889;27;20027;-69
2023/10/25 01:18:12;;;;;;;18.05;12.63;;;13.60;99.90;;;;;;5136038;27;20038;-69
2023/10/25 01:20:38;;;;;;;17.00;11.38;;;13.50;99.90;;;;;;5135132;27;20486;-69
2023/10/25 01:23:03;;;;;;;13.82;11.32;;;13.50;99.90;;;;;;5135563;27;20058;-69
2023/10/25 01:25:29;;;;;;;17.25;11.80;;;13.60;99.90;;;;;;5135215;27;20025;-69
2023/10/25 01:27:55;;;;;;;15.50;11.13;;;13.50;99.90;;;;;;5135814;27;20055;-69
2023/10/25 01:30:21;;;;;;;13.00;10.55;;;13.50;99.90;;;;;;5135148;27;20029;-70
2023/10/25 01:32:47;;;;;;;15.15;10.20;;;13.50;99.90;;;;;;5135614;27;20019;-70
2023/10/25 01:35:12;;;;;;;12.82;10.45;;;13.50;99.90;;;;;;5135502;27;20377;-70
2023/10/25 01:37:39;;;;;;;14.05;10.48;;;13.50;99.90;;;;;;5134757;27;20030;-70
2023/10/25 01:40:06;;;;;;;13.57;10.13;;;13.50;99.90;;;;;;5135551;27;20043;-70
2023/10/25 01:42:32;;;;;;;15.05;9.98;;;13.50;99.90;;;;;;5118403;27;20471;-70
2023/10/25 01:44:57;;;;;;;13.73;10.52;;;13.50;99.90;;;;;;5136084;27;20030;-71
2023/10/25 01:47:23;;;;;;;14.43;10.10;;;13.50;99.90;;;;;;5135123;27;20084;-70
2023/10/25 01:49:49;;;;;;;12.10;10.13;;;13.50;99.90;;;;;;5126585;27;20464;-70
2023/10/25 01:52:14;;;;;;;12.13;9.80;;;13.60;99.90;;;;;;5114890;28;20357;-70
2023/10/25 01:54:42;;;;;;;11.98;10.10;;;13.60;99.90;;;;;;5114174;28;20026;-70
2023/10/25 01:57:07;;;;;;;12.63;8.90;;;13.60;99.90;;;;;;5132949;27;20043;-70
2023/10/25 01:59:33;;;;;;;11.68;9.35;;;13.60;99.90;;;;;;5134772;27;20122;-70
2023/10/25 02:01:59;;;;;;;12.48;9.88;;;13.60;99.90;;;;;;5135015;27;20047;-69
2023/10/25 02:04:25;;;;;;;12.60;9.30;;;13.50;99.90;;;;;;5134412;27;20499;-71
2023/10/25 02:06:52;;;;;;;10.35;9.23;;;13.60;99.90;;;;;;5134906;27;20088;-70
2023/10/25 02:09:18;;;;;;;11.35;9.27;;;13.50;99.90;;;;;;5134808;27;20391;-71
2023/10/25 02:11:44;;;;;;;11.15;8.82;;;13.60;99.90;;;;;;5134437;27;20023;-70
2023/10/25 02:14:09;;;;;;;11.35;9.20;;;13.60;99.90;;;;;;5135013;27;20421;-70
2023/10/25 02:16:35;;;;;;;12.10;9.05;;;13.60;99.90;;;;;;5134129;27;20098;-71
2023/10/25 02:19:01;;;;;;;10.07;8.30;;;13.60;99.90;;;;;;5134341;27;20114;-71
2023/10/25 02:21:26;;;;;;;11.07;8.52;;;13.50;99.90;;;;;;5134317;27;20048;-70
2023/10/25 02:23:55;;;;;;;10.85;7.90;;;13.60;99.90;;;;;;5134759;27;20027;-71
2023/10/25 02:26:20;;;;;;;9.13;7.75;;;13.50;99.90;;;;;;5134320;27;20043;-71
2023/10/25 02:28:46;;;;;;;8.73;7.78;;;13.60;99.90;;;;;;5134678;27;20027;-70
2023/10/25 02:31:12;;;;;;;10.52;8.25;;;13.60;99.90;;;;;;5134109;27;20071;-71
2023/10/25 02:33:38;;;;;;;9.43;8.43;;;13.60;99.90;;;;;;5134320;27;20414;-71
2023/10/25 02:36:04;;;;;;;9.85;8.48;;;13.60;99.90;;;;;;5134241;27;20019;-71
2023/10/25 02:38:30;;;;;;;9.13;7.65;;;13.60;99.90;;;;;;5134119;27;20383;-71
2023/10/25 02:40:56;;;;;;;13.00;7.82;;;13.60;99.90;;;;;;5134424;27;20103;-71
2023/10/25 02:43:21;;;;;;;10.95;8.40;;;13.60;99.90;;;;;;5133823;27;20023;-72
2023/10/25 02:45:47;;;;;;;16.70;8.48;;;13.60;99.90;;;;;;5133572;27;20020;-70
2023/10/25 02:48:13;;;;;;;10.73;8.30;;;13.60;99.90;;;;;;5134002;27;20528;-70
2023/10/25 02:50:39;;;;;;;14.15;8.93;;;13.60;99.90;;;;;;5133476;27;20114;-70
2023/10/25 02:53:04;;;;;;;10.43;8.75;;;13.60;99.90;;;;;;5134260;27;20160;-70
2023/10/25 02:55:32;;;;;;;11.88;8.80;;;13.60;99.90;;;;;;5115389;27;20110;-70
2023/10/25 02:57:57;;;;;;;10.52;8.50;;;13.60;99.90;;;;;;5134339;27;20049;-70
2023/10/25 03:00:23;;;;;;;10.50;7.95;;;13.60;99.90;;;;;;5115312;27;20118;-71
2023/10/25 03:02:49;;;;;;;9.95;7.53;;;13.60;99.90;;;;;;5134105;27;20374;-70
2023/10/25 03:05:14;;;;;;;8.93;7.55;;;13.60;99.90;;;;;;5134057;27;20387;-71
2023/10/25 03:07:40;;;;;;;8.85;7.82;;;13.60;99.90;;;;;;5133651;27;20051;-71
2023/10/25 03:10:06;;;;;;;9.40;7.97;;;13.70;99.90;;;;;;5133645;27;20027;-70
2023/10/25 03:12:32;;;;;;;9.55;7.60;;;13.60;99.90;;;;;;5133437;27;20024;-70
2023/10/25 03:14:58;;;;;;;13.35;8.20;;;13.70;99.90;;;;;;5133880;27;20041;-70
2023/10/25 03:17:24;;;;;;;9.15;7.25;;;13.70;99.90;;;;;;5133129;27;20095;-70
2023/10/25 03:19:50;;;;;;;10.77;8.65;;;13.70;99.90;;;;;;5133148;27;20063;-69
2023/10/25 03:22:15;;;;;;;10.77;8.98;;;13.70;99.90;;;;;;5133846;27;20023;-69
2023/10/25 03:24:41;;;;;;;9.45;8.07;;;13.70;99.90;;;;;;5133738;28;20042;-70
2023/10/25 03:27:07;;;;;;;9.27;7.88;;;13.70;99.90;;;;;;5133962;28;20023;-70
2023/10/25 03:29:36;;;;;;;9.55;7.72;;;13.70;99.90;;;;;;5114690;28;20027;-69
2023/10/25 03:32:02;;;;;;;9.23;8.18;;;13.70;99.90;;;;;;5133275;28;20474;-69
2023/10/25 03:34:28;;;;;;;10.10;9.00;;;13.80;99.90;;;;;;5132964;28;20027;-70
2023/10/25 03:36:54;;;;;;;12.57;8.82;;;13.80;99.90;;;;;;5133506;28;20028;-69
2023/10/25 03:39:20;;;;;;;11.82;8.27;;;13.70;99.90;;;;;;5133418;28;20035;-69
2023/10/25 03:41:46;;;;;;;9.88;8.70;;;13.70;99.90;;;;;;5114609;28;20459;-69
2023/10/25 03:44:13;;;;;;;9.38;8.07;;;13.70;99.90;;;;;;5133575;28;20058;-69
2023/10/25 03:46:39;;;;;;;8.55;7.32;;;13.70;99.90;;;;;;5129658;28;20059;-67
2023/10/25 03:49:05;;;;;;;10.40;8.75;;;13.70;99.90;;;;;;5133255;28;20051;-70
2023/10/25 03:51:31;;;;;;;10.05;8.50;;;13.70;99.90;;;;;;5133099;28;20068;-71
2023/10/25 03:53:57;;;;;;;9.77;8.73;;;13.70;99.90;;;;;;5133484;28;20028;-71
2023/10/25 03:56:23;;;;;;;9.75;8.40;;;13.70;99.90;;;;;;5132666;28;20047;-70
2023/10/25 03:58:48;;;;;;;11.25;8.55;;;13.70;99.90;;;;;;5133106;28;20072;-69
2023/10/25 04:01:14;;;;;;;13.07;8.15;;;13.70;99.90;;;;;;5133375;28;20039;-70
2023/10/25 04:03:41;;;;;;;9.57;7.75;;;13.70;99.90;;;;;;5132806;28;20104;-70
2023/10/25 04:06:07;;;;;;;8.90;7.93;;;13.60;99.90;;;;;;5133342;28;20043;-70
2023/10/25 04:08:33;;;;;;;9.35;7.47;;;13.60;99.90;;;;;;5132527;28;20098;-71
2023/10/25 04:10:59;;;;;;;9.55;7.88;;;13.60;99.90;;;;;;5133459;28;20114;-70
2023/10/25 04:13:25;;;;;;;9.38;7.57;;;13.60;99.90;;;;;;5133238;28;20444;-69
2023/10/25 04:15:59;;;;;;;9.48;6.78;;;13.60;99.90;;;;;;5114567;28;20019;-70
2023/10/25 04:18:27;;;;;;;9.23;7.45;;;13.60;99.90;;;;;;5133174;28;20458;-70
2023/10/25 04:20:53;;;;;;;7.78;7.00;;;13.60;99.90;;;;;;5132338;28;20023;-70
2023/10/25 04:23:19;;;;;;;8.82;7.72;;;13.60;99.90;;;;;;5133046;28;20450;-69
2023/10/25 04:25:45;;;;;;;8.95;7.30;;;13.60;99.90;;;;;;5132787;28;20031;-69
2023/10/25 04:28:11;;;;;;;10.60;7.82;;;13.60;99.90;;;;;;5133159;28;20107;-70
2023/10/25 04:30:36;;;;;;;8.23;7.43;;;13.60;99.90;;;;;;5135573;27;20027;-71
2023/10/25 04:33:02;;;;;;;11.98;8.23;;;13.60;99.90;;;;;;5136823;27;20600;-71
2023/10/25 04:35:28;;;;;;;8.80;7.90;;;13.50;99.90;;;;;;5136813;27;20031;-70
2023/10/25 04:37:57;;;;;;;8.95;7.63;;;13.50;99.90;;;;;;5135993;27;20473;-70
2023/10/25 04:40:22;;;;;;;10.13;8.40;;;13.50;99.90;;;;;;5136602;27;20038;-70
2023/10/25 04:42:50;;;;;;;9.35;7.50;;;13.50;99.90;;;;;;5135890;27;20023;-69
2023/10/25 04:45:16;;;;;;;9.65;8.55;;;13.50;99.90;;;;;;5136785;27;20034;-70
2023/10/25 04:47:42;;;;;;;11.57;9.25;;;13.50;99.90;;;;;;5136215;27;20027;-70
2023/10/25 04:50:08;;;;;;;12.95;9.75;;;13.50;99.90;;;;;;5118329;27;20386;-69
2023/10/25 04:52:33;;;;;;;12.27;9.30;;;13.50;99.90;;;;;;5135903;27;20027;-70
2023/10/25 04:54:59;;;;;;;11.82;10.05;;;13.50;99.90;;;;;;5136664;27;20019;-69
2023/10/25 04:57:25;;;;;;;11.57;9.57;;;13.50;99.90;;;;;;5131880;27;20044;-70
2023/10/25 04:59:51;;;;;;;12.60;11.13;;;13.50;99.90;;;;;;5115722;28;20413;-70
2023/10/25 05:02:17;;;;;;;12.25;10.30;;;13.50;99.90;;;;;;5122974;27;20019;-70
2023/10/25 05:04:43;;;;;;;12.57;11.25;;;13.50;99.90;;;;;;5135835;27;20377;-68
2023/10/25 05:07:09;;;;;;;13.90;10.50;;;13.50;99.90;;;;;;5136275;27;20041;-70
2023/10/25 05:09:35;;;;;;;15.43;11.23;;;13.50;99.90;;;;;;5135898;27;20462;-70
2023/10/25 05:12:08;;;;;;;13.45;10.73;;;13.50;99.90;;;;;;5136309;27;20532;-69
2023/10/25 05:14:34;;;;;;;11.52;10.23;;;13.50;99.90;;;;;;5134004;27;20081;-71
2023/10/25 05:17:01;;;;;;;12.68;10.80;;;13.50;99.90;;;;;;5115595;28;20072;-70
2023/10/25 05:19:26;;;;;;;12.75;10.77;;;13.50;99.90;;;;;;5118106;27;20059;-69
2023/10/25 05:21:54;;;;;;;13.93;10.80;;;13.50;99.90;;;;;;5101091;27;20470;-70
2023/10/25 05:24:19;;;;;;;13.13;9.90;;;13.50;99.90;;;;;;5135656;27;20019;-69
2023/10/25 05:26:46;;;;;;;13.02;10.15;;;13.50;99.90;;;;;;5134936;27;20023;-70
2023/10/25 05:29:12;;;;;;;13.27;10.48;;;13.60;99.90;;;;;;5135838;27;20105;-71
2023/10/25 05:31:42;;;;;;;10.63;9.30;;;13.60;99.90;;;;;;5135378;27;20118;-70
2023/10/25 05:34:08;;;;;;;13.90;10.05;;;13.60;99.90;;;;;;5135506;27;20149;-70
2023/10/25 05:36:34;;;;;;;12.63;8.55;;;13.60;99.90;;;;;;5135314;27;20068;-73
2023/10/25 05:39:03;;;;;;;11.02;8.70;;;13.60;99.90;;;;;;5132451;27;20027;-70
2023/10/25 05:41:38;;;;;;;9.75;8.10;;;13.60;99.90;;;;;;5113956;28;20030;-70
2023/10/25 05:44:13;;;;;;;9.82;8.02;;;13.60;99.90;;;;;;5114834;28;20030;-70
2023/10/25 05:46:38;;;;;;;9.30;7.60;;;13.70;99.90;;;;;;5118182;27;20434;-70
2023/10/25 05:49:04;;;;;;;10.93;7.55;;;13.70;99.90;;;;;;5135662;27;20110;-71
2023/10/25 05:51:31;;;;;;;7.93;7.13;;;13.70;99.90;;;;;;5135556;27;20031;-70
2023/10/25 05:53:57;;;;;;;7.93;7.13;;;13.70;99.90;;;;;;5134843;27;20027;-71
2023/10/25 05:56:26;;;;;;;9.40;7.45;;;13.70;99.90;;;;;;5135238;27;20047;-70
2023/10/25 05:58:53;;;;;;;8.20;7.10;;;13.70;99.90;;;;;;5134829;27;20027;-70
2023/10/25 06:01:22;;;;;;;7.78;6.38;;;13.80;99.90;;;;;;5116646;27;20050;-69
2023/10/25 06:03:51;;;;;;;12.13;6.55;;;13.80;99.90;;;;;;5134429;27;20102;-71
2023/10/25 06:06:18;;;;;;;9.00;6.70;;;13.80;99.90;;;;;;5134964;27;20033;-71
2023/10/25 06:08:44;;;;;;;9.65;6.30;;;13.80;99.90;;;;;;5134346;27;20079;-71
2023/10/25 06:11:11;;;;;;;7.32;5.93;;;13.80;99.90;;;;;;5134986;27;20035;-71
2023/10/25 06:13:37;;;;;;;7.82;5.85;;;13.80;99.90;;;;;;5134043;27;20451;-72
2023/10/25 06:16:02;;;;;;;7.00;5.05;;;13.90;99.90;;;;;;5134699;27;20051;-70
2023/10/25 06:18:28;;;;;;;5.53;4.95;;;13.90;99.90;;;;;;5134730;27;20023;-70
2023/10/25 06:20:54;;;;;;;7.00;5.20;;;13.90;99.90;;;;;;5134165;27;20043;-70
2023/10/25 06:23:19;;;;;;;6.03;5.25;;;13.90;99.90;;;;;;5134594;27;20035;-70
2023/10/25 06:25:45;;;;;;;10.38;4.85;;;13.90;99.90;;;;;;5134189;27;20465;-69
2023/10/25 06:28:10;;;;;;;9.98;4.50;;;13.90;99.90;;;;;;5134212;27;20023;-70
2023/10/25 06:30:36;;;;;;;6.40;4.53;;;13.90;99.90;;;;;;5134529;27;20023;-69
2023/10/25 06:33:04;;;;;;;6.07;4.68;;;14.00;99.90;;;;;;5134045;27;20102;-70
2023/10/25 06:35:29;;;;;;;7.18;4.93;;;14.00;99.90;;;;;;5134480;27;20034;-70
2023/10/25 06:37:55;;;;;;;7.15;4.60;;;14.00;99.90;;;;;;5133592;27;20102;-70
2023/10/25 06:40:22;;;;;;;4.90;4.40;;;14.00;99.90;;;;;;5133863;27;20191;-70
2023/10/25 06:42:48;;;;;;;6.82;5.40;;;14.00;99.90;;;;;;5133489;27;20027;-70
2023/10/25 06:45:14;;;;;;;7.00;4.75;;;14.00;99.90;;;;;;5115980;27;20042;-71
2023/10/25 06:47:42;;;;;;;6.47;4.40;;;14.10;99.90;;;;;;5115401;27;20031;-70
2023/10/25 06:50:10;;;;;;;5.18;4.40;;;14.10;99.90;;;;;;5134153;27;20035;-71
2023/10/25 06:52:36;;;;;;;5.53;4.28;;;14.10;99.90;;;;;;5114734;28;20371;-70
2023/10/25 06:55:02;;;;;;;4.53;3.95;;;14.10;99.90;;;;;;5133357;27;20019;-71
2023/10/25 06:57:28;;;;;;;5.53;4.28;;;14.10;99.90;;;;;;5134061;27;20060;-70
2023/10/25 06:59:54;;;;;;;4.90;3.83;;;14.10;99.90;;;;;;5133383;27;20043;-71
2023/10/25 07:02:47;;;;;;;4.38;3.97;;;14.10;99.90;;;;;;5133926;27;20163;-69
2023/10/25 07:05:13;;;;;;;5.35;4.40;;;14.20;99.90;;;;;;5134015;27;20103;-69
2023/10/25 07:07:41;;;;;;;4.30;3.90;;;14.20;99.90;;;;;;5133712;27;20379;-70
2023/10/25 07:10:10;;;;;;;5.25;3.80;;;14.20;99.90;;;;;;5133779;27;20034;-69
2023/10/25 07:12:36;;;;;;;4.63;4.13;;;14.20;99.90;;;;;;5133743;27;20069;-71
2023/10/25 07:15:03;;;;;;;4.10;3.70;;;14.20;99.90;;;;;;5132897;27;20035;-69
2023/10/25 07:17:29;;;;;;;4.45;3.75;;;14.20;99.90;;;;;;5133784;27;20079;-71
2023/10/25 07:19:54;;;;;;;5.10;3.90;;;14.30;99.90;;;;;;5133038;27;20459;-71
2023/10/25 07:22:20;;;;;;;4.07;3.67;;;14.30;99.90;;;;;;5133566;27;20019;-71
2023/10/25 07:24:46;;;;;;;7.97;3.80;;;14.30;99.90;;;;;;5133104;27;20030;-69
2023/10/25 07:27:12;;;;;;;7.65;3.60;;;14.30;99.90;;;;;;5133445;27;20152;-70
2023/10/25 07:29:37;;;;;;;4.75;4.35;;;14.30;99.90;;;;;;5133572;27;20459;-70
2023/10/25 07:32:04;;;;;;;5.57;4.10;;;14.30;99.90;;;;;;5132964;28;20363;-70
2023/10/25 07:34:29;;;;;;;4.40;4.00;;;14.40;99.90;;;;;;5133408;28;20023;-71
2023/10/25 07:36:55;;;;;;;5.05;4.05;;;14.40;99.90;;;;;;5132995;28;20102;-71
2023/10/25 07:39:21;;;;;;;3.90;3.50;;;14.40;99.90;;;;;;5133936;28;20451;-71
2023/10/25 07:41:47;;;;;;;7.13;4.03;;;14.40;99.90;;;;;;5132881;28;20106;-69
2023/10/25 07:44:13;;;;;;;5.65;4.68;;;14.40;99.90;;;;;;5133260;28;20054;-70
2023/10/25 07:46:38;;;;;;;6.55;3.75;;;14.40;99.90;;;;;;5133735;28;20027;-69
2023/10/25 07:49:04;;;;;;;3.92;3.55;;;14.50;99.90;;;;;;5121327;28;20023;-70
2023/10/25 07:51:29;;;;;;;4.03;3.63;;;14.50;99.90;;;;;;5119644;28;20348;-71
2023/10/25 07:53:55;;;;;;;3.92;3.50;;;14.50;99.90;;;;;;5133583;28;20111;-71
2023/10/25 07:56:21;;;;;;;4.45;4.05;;;14.50;99.90;;;;;;5133554;27;20201;-70
2023/10/25 07:58:46;;;;;;;4.22;3.78;;;14.50;99.90;;;;;;5132885;28;20053;-72
2023/10/25 08:01:13;;;;;;;4.22;3.67;;;14.60;99.90;;;;;;5132994;28;20093;-70
2023/10/25 08:03:38;;;;;;;6.85;4.60;;;14.60;99.90;;;;;;5133512;27;20027;-70
2023/10/25 08:06:05;;;;;;;4.28;3.88;;;14.60;99.90;;;;;;5136425;27;20674;-70
2023/10/25 08:08:34;;;;;;;5.93;4.18;;;14.60;99.90;;;;;;5137174;27;20031;-70
2023/10/25 08:11:05;;;;;;;6.03;3.92;;;14.70;99.90;;;;;;5136815;27;20039;-70
2023/10/25 08:13:33;;;;;;;4.63;4.18;;;14.70;99.90;;;;;;5137309;27;20495;-70
2023/10/25 08:16:00;;;;;;;5.57;4.18;;;14.60;99.90;;;;;;5118223;27;20023;-70
2023/10/25 08:18:30;;;;;;;5.30;4.28;;;14.70;99.90;;;;;;5137310;27;20049;-70
2023/10/25 08:20:57;;;;;;;4.00;3.60;;;14.70;99.90;;;;;;5137083;27;20038;-70
2023/10/25 08:23:23;;;;;;;4.32;3.92;;;14.80;99.90;;;;;;5118775;27;20383;-71
2023/10/25 08:25:50;;;;;;;5.03;3.40;;;14.80;99.90;;;;;;5136664;27;20031;-70
2023/10/25 08:28:16;;;;;;;4.47;3.92;;;14.80;99.90;;;;;;5137184;27;20088;-70
2023/10/25 08:30:42;;;;;;;5.15;3.85;;;14.80;99.90;;;;;;5136777;27;20028;-70
2023/10/25 08:33:07;;;;;;;6.03;3.80;;;14.80;99.90;;;;;;5136637;27;20028;-71
2023/10/25 08:35:33;;;;;;;7.20;3.80;;;14.90;99.90;;;;;;5137002;27;20023;-70
2023/10/25 08:37:59;;;;;;;8.57;4.38;;;14.90;99.90;;;;;;5136254;27;20076;-71
2023/10/25 08:40:25;;;;;;;4.97;4.03;;;14.90;99.90;;;;;;5136381;27;20035;-71
2023/10/25 08:42:51;;;;;;;6.00;3.90;;;15.00;99.90;;;;;;5136319;27;20023;-71
2023/10/25 08:45:17;;;;;;;6.10;4.00;;;15.00;99.90;;;;;;5136973;27;20116;-70
2023/10/25 08:47:43;;;;;;;4.10;3.67;;;15.10;99.90;;;;;;5136049;27;20027;-70
2023/10/25 08:50:10;;;;;;;6.80;3.70;;;15.10;99.90;;;;;;5136198;27;20039;-70
2023/10/25 08:52:38;;;;;;;5.80;3.80;;;15.20;99.90;;;;;;5136019;27;20550;-71
2023/10/25 08:55:09;;;;;;;5.07;3.92;;;15.30;99.90;;;;;;5135650;27;20459;-70
2023/10/25 08:57:37;;;;;;;5.20;3.40;;;15.40;99.90;;;;;;5136080;27;20058;-71
2023/10/25 09:00:07;;;;;;;5.65;2.72;;;15.50;99.90;;;;;;5135805;27;20035;-70
2023/10/25 09:02:38;;;;;;;4.30;3.53;;;15.60;99.90;;;;;;5136522;27;20053;-71
2023/10/25 09:05:07;;;;;;;4.32;2.90;;;15.70;99.90;;;;;;5135836;27;20058;-70
2023/10/25 09:07:35;;;;;;;4.15;2.97;;;15.70;99.90;;;;;;5136080;27;20055;-71
2023/10/25 09:10:11;;;;;;;6.90;3.25;;;15.80;99.90;;;;;;5135603;27;20041;-70
2023/10/25 09:12:37;;;;;;;3.50;2.83;;;15.80;99.90;;;;;;5135628;27;20061;-70
2023/10/25 09:15:04;;;;;;;3.20;2.90;;;15.90;99.90;;;;;;5135187;27;20051;-70
2023/10/25 09:17:33;;;;;;;3.05;2.17;;;15.90;99.90;;;;;;5135230;27;20053;-70
2023/10/25 09:19:58;;;;;;;3.95;2.75;;;15.90;99.90;;;;;;5117100;27;20043;-70
2023/10/25 09:22:27;;;;;;;3.97;2.42;;;16.00;99.90;;;;;;5136186;27;20024;-71
2023/10/25 09:24:54;;;;;;;2.70;2.45;;;16.00;99.90;;;;;;5135544;27;20493;-74
2023/10/25 09:27:21;;;;;;;3.05;2.35;;;16.10;99.90;;;;;;5135713;27;20019;-71
2023/10/25 09:29:48;;;;;;;3.10;2.33;;;16.10;99.90;;;;;;5135523;27;20039;-70
2023/10/25 09:32:14;;;;;;;2.28;1.98;;;16.20;99.90;;;;;;5134937;27;20111;-71
2023/10/25 09:34:41;;;;;;;4.68;2.58;;;16.30;99.90;;;;;;5135755;27;20055;-71
2023/10/25 09:37:07;;;;;;;4.25;2.40;;;16.30;99.90;;;;;;5134805;27;20376;-70
2023/10/25 09:39:35;;;;;;;6.05;2.50;;;16.40;99.90;;;;;;5135522;27;20031;-70
2023/10/25 09:42:13;;;;;;;4.22;2.50;;;16.40;99.90;;;;;;5135095;27;20050;-70
2023/10/25 09:44:54;;;;;;;3.78;2.28;;;16.50;99.90;;;;;;5135331;27;20110;-70
2023/10/25 09:47:26;;;;;;;3.20;2.60;;;16.50;99.90;;;;;;5135341;27;20084;-70
2023/10/25 09:49:59;;;;;;;4.05;2.28;;;16.60;99.90;;;;;;5135462;27;20039;-70
2023/10/25 09:52:28;;;;;;;5.38;2.85;;;16.60;99.90;;;;;;5135422;27;20106;-70
2023/10/25 09:55:03;;;;;;;3.72;2.58;;;16.70;99.90;;;;;;5135003;27;20495;-72
2023/10/25 09:57:30;;;;;;;4.68;2.50;;;16.70;99.80;;;;;;5130027;27;20055;-70
2023/10/25 09:59:56;;;;;;;2.67;2.47;;;16.80;99.60;;;;;;5134576;27;20498;-70
2023/10/25 10:02:34;;;;;;;3.00;2.63;;;16.80;99.70;;;;;;5134612;27;20436;-70
2023/10/25 10:05:11;;;;;;;4.15;2.65;;;16.90;99.50;;;;;;5134169;27;20305;-70
2023/10/25 10:07:54;;;;;;;3.30;2.20;;;17.00;99.10;;;;;;5134700;27;20448;-69
2023/10/25 10:10:37;;;;;;;2.42;2.20;;;17.10;98.10;;;;;;5134803;27;20159;-70
2023/10/25 10:13:20;;;;;;;4.05;2.10;;;17.10;97.70;;;;;;5134093;27;20110;-71
2023/10/25 10:15:58;;;;;;;2.25;2.05;;;17.20;98.00;;;;;;5134411;27;20023;-70
2023/10/25 10:18:33;;;;;;;2.63;2.22;;;17.20;97.80;;;;;;5134548;27;20110;-69
2023/10/25 10:21:04;;;;;;;2.88;2.15;;;17.20;97.90;;;;;;5134053;27;20158;-72
2023/10/25 10:23:37;;;;;;;3.22;2.10;;;17.30;97.20;;;;;;5134686;27;20027;-70
2023/10/25 10:26:04;;;;;;;1.52;1.42;;;17.30;96.40;;;;;;5134261;27;20027;-70
2023/10/25 10:28:37;;;;;;;2.05;1.60;;;17.30;95.30;;;;;;5134259;27;20039;-70
2023/10/25 10:31:03;;;;;;;3.08;1.40;;;17.30;94.80;;;;;;5133932;27;20035;-71
2023/10/25 10:33:29;;;;;;;7.32;1.40;;;17.30;94.40;;;;;;5115806;27;20023;-71
2023/10/25 10:36:01;;;;;;;2.40;1.60;;;17.40;94.20;;;;;;5134201;27;20027;-70
2023/10/25 10:38:26;;;;;;;2.30;1.27;;;17.40;94.10;;;;;;5134298;27;20066;-70
2023/10/25 10:41:00;;;;;;;1.33;1.23;;;17.50;93.80;;;;;;5133786;27;20059;-71
2023/10/25 10:43:26;;;;;;;1.45;1.10;;;17.40;93.10;;;;;;5133866;27;20095;-71
2023/10/25 10:45:54;;;;;;;2.28;1.70;;;17.50;93.20;;;;;;5133860;27;20527;-70
2023/10/25 10:48:29;;;;;;;5.15;1.73;;;17.40;93.40;;;;;;5133580;27;20110;-70
2023/10/25 10:50:55;;;;;;;3.60;1.90;;;17.40;93.60;;;;;;5134054;27;20053;-70
2023/10/25 10:53:21;;;;;;;1.70;1.25;;;17.40;93.90;;;;;;5133416;27;20023;-70
2023/10/25 10:55:46;;;;;;;1.45;1.30;;;17.50;94.20;;;;;;5133479;27;20027;-69
2023/10/25 10:58:12;;;;;;;2.13;1.60;;;17.50;94.30;;;;;;5133609;27;20403;-71
2023/10/25 11:00:44;;;;;;;2.75;1.80;;;17.50;94.00;;;;;;5133881;27;20039;-70
2023/10/25 11:03:10;;;;;;;2.38;1.80;;;17.60;93.70;;;;;;5133408;27;20026;-70
2023/10/25 11:05:36;;;;;;;3.65;1.80;;;17.70;93.80;;;;;;5133525;27;20446;-70
2023/10/25 11:08:02;;;;;;;1.63;1.30;;;17.70;93.30;;;;;;5132695;27;20425;-70
2023/10/25 11:10:28;;;;;;;2.40;1.60;;;17.80;93.00;;;;;;5133543;27;20023;-70
2023/10/25 11:12:58;;;;;;;2.38;1.33;;;17.90;92.60;;;;;;5115089;27;20023;-70
2023/10/25 11:15:25;;;;;;;3.73;1.40;;;17.90;91.90;;;;;;5133488;27;20023;-70
2023/10/25 11:17:51;;;;;;;2.42;1.80;;;18.00;91.50;;;;;;5133765;27;20391;-71
2023/10/25 11:20:17;;;;;;;2.42;2.05;;;18.00;91.30;;;;;;5132804;27;20130;-70
2023/10/25 11:22:42;;;;;;;1.80;1.42;;;18.00;91.00;;;;;;5133595;27;20098;-70
2023/10/25 11:25:12;;;;;;;1.77;1.20;;;18.10;90.90;;;;;;5133299;27;20027;-70
2023/10/25 11:27:38;;;;;;;1.30;1.20;;;18.10;90.50;;;;;;5133683;27;20087;-70
2023/10/25 11:30:05;;;;;;;2.78;1.95;;;18.20;90.50;;;;;;5132922;27;20039;-70
2023/10/25 11:32:32;;;;;;;4.63;2.20;;;18.20;90.20;;;;;;5133587;27;20031;-70
2023/10/25 11:34:59;;;;;;;1.50;1.38;;;18.30;89.70;;;;;;5133375;28;20046;-69
2023/10/25 11:37:25;;;;;;;1.90;1.40;;;18.30;89.90;;;;;;5133044;28;20030;-69
2023/10/25 11:40:09;;;;;;;2.88;1.92;;;18.30;90.00;;;;;;5135284;27;20498;-71
2023/10/25 11:42:35;;;;;;;1.80;1.40;;;18.40;88.90;;;;;;5137957;27;20026;-71
2023/10/25 11:45:03;;;;;;;1.35;1.15;;;18.60;88.10;;;;;;5137327;27;20030;-71
2023/10/25 11:47:32;;;;;;;2.28;1.13;;;18.70;89.10;;;;;;5137422;27;20027;-70
2023/10/25 11:49:59;;;;;;;1.30;1.20;;;18.90;88.40;;;;;;5137273;27;20087;-70
2023/10/25 11:52:29;;;;;;;3.28;1.10;;;19.10;87.80;;;;;;5137254;27;20192;-70
2023/10/25 11:54:56;;;;;;;1.17;1.07;;;19.10;82.40;;;;;;5137410;27;20058;-70
2023/10/25 11:57:27;;;;;;;1.40;1.30;;;19.00;80.80;;;;;;5136773;27;20490;-70
2023/10/25 11:59:53;;;;;;;4.75;1.38;;;19.00;81.40;;;;;;5136921;27;20031;-71
2023/10/25 12:02:21;;;;;;;1.23;1.10;;;19.00;81.40;;;;;;5135938;27;20527;-71
2023/10/25 12:04:48;;;;;;;1.58;1.08;;;18.90;81.50;;;;;;5134110;27;20447;-70
2023/10/25 12:07:14;;;;;;;0.98;0.75;;;18.80;80.80;;;;;;5136857;27;20027;-71
2023/10/25 12:09:41;;;;;;;1.33;0.80;;;18.80;80.70;;;;;;5137202;27;20025;-71
2023/10/25 12:12:07;;;;;;;0.68;0.50;;;18.70;80.30;;;;;;5136576;27;20080;-70
2023/10/25 12:14:33;;;;;;;0.95;0.70;;;18.70;80.40;;;;;;5136930;27;20016;-69
2023/10/25 12:16:58;;;;;;;0.77;0.70;;;18.80;80.10;;;;;;5136898;27;20432;-71
2023/10/25 12:19:24;;;;;;;0.50;0.50;;;18.90;80.20;;;;;;5136756;27;20048;-70
2023/10/25 12:21:56;;;;;;;2.22;0.63;;;19.10;80.80;;;;;;5118540;27;20379;-70
2023/10/25 12:24:25;;;;;;;;;;;19.20;80.20;;;;;;5136766;27;20384;-70
2023/10/25 12:26:51;;;;;;;0.50;0.50;;;19.10;78.50;;;;;;5136912;27;19903;-70
2023/10/25 12:29:16;;;;;;;0.80;0.75;;;19.10;78.60;;;;;;5136431;27;20023;-71
2023/10/25 12:31:42;;;;;;;0.77;0.70;;;19.20;79.70;;;;;;5136509;27;20483;-71
2023/10/25 12:34:08;;;;;;;0.70;0.70;;;19.10;78.40;;;;;;5136061;27;20027;-71
2023/10/25 12:36:33;;;;;;;0.80;0.63;;;19.10;79.90;;;;;;5136669;27;20030;-70
2023/10/25 12:38:59;;;;;;;1.00;0.85;;;19.10;79.90;;;;;;5136407;27;20027;-70